Paleo Faliro, Greece

2:52 PM EEST on July 03, 2015 (GMT +0300)
Amfithea | | Change Station
CLOSE
Current Station
Personal Weather Station
Location: Paleon Faliron, Attica
Elevation: 144 ft
Nearby Weather Stations

Elev 144 ft 37.93 °N, 23.71 °E | Updated 2 minutes ago

Partly Cloudy
Partly Cloudy
85.4 °F
Feels Like 85 °F
N
9.0
Wind Variable Wind from NNE
Gusts 20.0 mph

Today
High -- | Low -- °F
--% Chance of Precip.
Yesterday
High -- | Low -- °F
Precip. -- in
6:07 AM 8:51 PM
Full, 97% visible
Pressure 30.12 in
Visibility 6.2 miles
Clouds Few 3000 ft
Heat Index 85 °F
Dew Point 60 °F
Humidity 43%
Rainfall 0.00 in
Snow Depth Not available.
UV 7.8 out of 12
Pollen Not available.
Air Quality Not available.
Flu Activity Not available.
METAR LGAV 031120Z 02018KT 9999 FEW030 28/13 Q1020 NOSIG

More Conditions Fewer Conditions

Pressure 30.12 in
Visibility 6.2 miles
Clouds Few 3000 ft
Heat Index 85 °F
Dew Point 60 °F
Humidity 43%
Rainfall 0.00 in
Snow Depth Not available.
UV 7.8 out of 12
Pollen Not available.
Air Quality Not available.
Flu Activity Not available.
METAR LGAV 031120Z 02018KT 9999 FEW030 28/13 Q1020 NOSIG

More Conditions Fewer Conditions

10-Day Weather Forecast

×

Almanac

Astronomy

Jul. 03, 2015 Rise Set
Actual Time
Civil Twilight
Nautical Twilight
Astronomical Twilight
Moon
Length of Visible Light
Length of Day
Tomorrow will be .
, % of the Moon is Illuminated

Today's Extremes

Country Highs Country Lows

Community

WunderPhotos

Upload Photos

1,834,656 photos uploaded!

WunderBlogs® & News

Nearby

Air Quality

  Air Quality AQ Index Pollutant
Not available.

Snow Depth

Station Depth Elevation

Earthquake Activity

City Distance Mag. Time & Date
Minimum magnitude displayed is 2.5.

Coastal Water Temperatures

Place Temperature

Stations

Nearby Weather Stations

Station Location Temp. Windchill Dew Point Humidity Wind Precip. Elev Updated Type